createdAt,value
2019-04-20T00:01:45.359Z,16.42
2019-04-20T00:04:19.431Z,18.00
2019-04-20T00:06:48.557Z,15.88
2019-04-20T00:09:20.666Z,16.12
2019-04-20T00:11:53.616Z,15.63
2019-04-20T00:14:23.917Z,17.10
2019-04-20T00:16:48.233Z,16.80
2019-04-20T00:19:22.647Z,16.85
2019-04-20T00:21:55.327Z,16.07
2019-04-20T00:24:29.243Z,15.87
2019-04-20T00:27:13.580Z,16.50
2019-04-20T00:29:47.948Z,17.67
2019-04-20T00:32:06.353Z,16.20
2019-04-20T00:34:31.506Z,15.55
2019-04-20T00:36:56.158Z,16.75
2019-04-20T00:39:25.862Z,16.43
2019-04-20T00:42:00.465Z,16.57
2019-04-20T00:44:31.701Z,16.55
2019-04-20T00:47:08.512Z,17.48
2019-04-20T00:49:41.433Z,16.10
2019-04-20T00:52:23.774Z,17.73
2019-04-20T00:54:28.317Z,17.67
2019-04-20T00:57:11.806Z,17.27
2019-04-20T00:59:42.938Z,17.62
2019-04-20T01:02:15.544Z,17.48
2019-04-20T01:04:47.637Z,17.57
2019-04-20T01:07:20.785Z,17.45
2019-04-20T01:09:56.243Z,18.05
2019-04-20T01:12:28.529Z,18.70
2019-04-20T01:14:59.128Z,18.73
2019-04-20T01:17:25.339Z,18.67
2019-04-20T01:19:54.119Z,18.30
2019-04-20T01:22:27.280Z,18.15
2019-04-20T01:24:54.585Z,17.57
2019-04-20T01:27:37.484Z,18.50
2019-04-20T01:30:07.455Z,18.40
2019-04-20T01:32:34.278Z,18.55
2019-04-20T01:35:05.748Z,18.67
2019-04-20T01:37:36.449Z,18.65
2019-04-20T01:39:58.847Z,17.48
2019-04-20T01:42:29.938Z,17.62
2019-04-20T01:47:32.061Z,18.15
2019-04-20T01:50:03.398Z,19.42
2019-04-20T01:52:45.491Z,19.07
2019-04-20T01:55:22.983Z,19.70
2019-04-20T01:58:00.612Z,18.63
2019-04-20T02:00:36.634Z,18.67
2019-04-20T02:03:13.083Z,19.02
2019-04-20T02:05:46.815Z,19.10
2019-04-20T02:08:18.379Z,20.50
2019-04-20T02:10:51.776Z,20.23
2019-04-20T02:13:15.384Z,19.50
2019-04-20T02:15:49.446Z,20.68
2019-04-20T02:18:28.255Z,19.27
2019-04-20T02:21:05.152Z,20.62
2019-04-20T02:23:28.199Z,21.27
2019-04-20T02:25:45.952Z,20.12
2019-04-20T02:28:34.299Z,20.75
2019-04-20T02:31:24.843Z,21.70
2019-04-20T02:34:04.048Z,21.45
2019-04-20T02:39:33.041Z,20.65
2019-04-20T02:46:40.909Z,23.13
2019-04-20T02:51:42.114Z,21.90
2019-04-20T02:59:45.414Z,21.57
2019-04-20T03:01:30.738Z,22.02
2019-04-20T03:03:49.136Z,21.77
2019-04-20T03:06:26.300Z,22.35
2019-04-20T03:09:08.956Z,20.90
2019-04-20T03:11:48.284Z,21.15
2019-04-20T03:14:04.695Z,22.17
2019-04-20T03:16:37.478Z,22.95
2019-04-20T03:19:06.807Z,21.82
2019-04-20T03:21:39.375Z,21.23
2019-04-20T03:24:15.961Z,23.22
2019-04-20T03:26:43.965Z,22.87
2019-04-20T03:29:40.955Z,20.77
2019-04-20T03:37:13.399Z,22.48
2019-04-20T03:39:37.239Z,23.12
2019-04-20T03:41:55.146Z,21.40
2019-04-20T03:44:26.418Z,21.87
2019-04-20T03:46:58.027Z,21.80
2019-04-20T03:49:52.540Z,22.35
2019-04-20T03:52:27.815Z,22.25
2019-04-20T03:54:57.384Z,20.72
2019-04-20T03:57:43.756Z,21.90
2019-04-20T04:00:26.480Z,23.27
2019-04-20T04:03:12.462Z,22.37
2019-04-20T04:05:46.859Z,23.12
2019-04-20T04:08:12.275Z,23.20
2019-04-20T04:10:50.529Z,22.80
2019-04-20T04:13:09.785Z,22.40
2019-04-20T04:15:47.918Z,24.00
2019-04-20T04:18:19.717Z,24.25
2019-04-20T04:20:49.796Z,23.35
2019-04-20T04:23:32.585Z,24.87
2019-04-20T04:26:00.785Z,23.73
2019-04-20T04:28:31.210Z,23.20
2019-04-20T04:31:04.157Z,25.50
2019-04-20T04:36:00.458Z,26.07
2019-04-20T04:38:40.552Z,25.43
2019-04-20T04:43:35.942Z,25.30
2019-04-20T04:45:46.923Z,24.92
2019-04-20T04:48:22.130Z,26.55
2019-04-20T04:50:53.816Z,25.72
2019-04-20T04:53:28.485Z,24.85
2019-04-20T04:55:54.917Z,24.90
2019-04-20T04:58:17.296Z,24.25
2019-04-20T05:00:46.756Z,24.72
2019-04-20T05:03:35.865Z,23.98
2019-04-20T05:06:08.904Z,25.12
2019-04-20T05:08:26.131Z,24.87
2019-04-20T05:10:50.000Z,23.20
2019-04-20T05:13:19.921Z,24.50
2019-04-20T05:16:06.308Z,24.95
2019-04-20T05:18:44.994Z,24.45
2019-04-20T05:21:10.659Z,24.67
2019-04-20T05:23:53.478Z,24.87
2019-04-20T05:26:30.053Z,23.52
2019-04-20T05:28:51.436Z,22.20
2019-04-20T05:31:13.453Z,23.00
2019-04-20T05:34:11.734Z,23.98
2019-04-20T05:36:37.281Z,23.67
2019-04-20T05:39:13.082Z,24.35
2019-04-20T05:41:34.404Z,24.20
2019-04-20T05:43:59.781Z,24.95
2019-04-20T05:46:36.250Z,23.25
2019-04-20T05:49:13.496Z,23.00
2019-04-20T05:54:11.972Z,23.90
2019-04-20T05:56:40.033Z,23.70
2019-04-20T05:59:11.728Z,25.27
2019-04-20T06:01:48.824Z,22.42
2019-04-20T06:04:09.985Z,22.15
2019-04-20T06:06:45.245Z,23.80
2019-04-20T06:09:20.954Z,23.95
2019-04-20T06:11:57.503Z,20.77
2019-04-20T06:14:13.472Z,21.73
2019-04-20T06:17:15.882Z,21.60
2019-04-20T06:19:39.489Z,21.60
2019-04-20T06:22:27.257Z,20.23
2019-04-20T06:25:16.763Z,20.47
2019-04-20T06:27:39.897Z,20.50
2019-04-20T06:30:00.422Z,19.23
2019-04-20T06:33:11.505Z,21.37
2019-04-20T06:35:54.619Z,19.87
2019-04-20T06:38:26.714Z,20.97
2019-04-20T06:43:05.471Z,20.05
2019-04-20T06:45:44.428Z,20.88
2019-04-20T06:48:14.672Z,21.20
2019-04-20T06:50:40.512Z,21.57
2019-04-20T06:53:28.526Z,21.35
2019-04-20T06:55:58.887Z,20.77
2019-04-20T06:58:41.979Z,20.48
2019-04-20T07:00:56.713Z,18.98
2019-04-20T07:03:40.712Z,19.90
2019-04-20T07:06:06.451Z,19.42
2019-04-20T07:08:43.941Z,20.60
2019-04-20T07:11:05.678Z,19.50
2019-04-20T07:13:20.572Z,19.90
2019-04-20T07:15:57.257Z,19.80
2019-04-20T07:18:35.262Z,18.85
2019-04-20T07:21:15.756Z,19.90
2019-04-20T07:23:48.241Z,18.55
2019-04-20T07:26:17.056Z,19.27
2019-04-20T07:28:51.185Z,19.70
2019-04-20T07:31:17.211Z,20.52
2019-04-20T07:33:46.354Z,20.02
2019-04-20T07:36:20.030Z,20.05
2019-04-20T07:38:47.618Z,18.82
2019-04-20T07:41:29.350Z,19.50
2019-04-20T07:43:58.875Z,20.02
2019-04-20T07:46:34.911Z,19.27
2019-04-20T07:48:51.901Z,19.17
2019-04-20T07:51:11.453Z,20.40
2019-04-20T07:53:46.377Z,17.30
2019-04-20T07:56:25.532Z,18.92
2019-04-20T07:58:41.105Z,19.37
2019-04-20T08:01:38.734Z,18.77
2019-04-20T08:04:08.026Z,18.90
2019-04-20T08:06:35.311Z,19.98
2019-04-20T08:09:08.243Z,19.07
2019-04-20T08:11:50.773Z,19.23
2019-04-20T08:14:35.090Z,19.48
2019-04-20T08:16:58.629Z,18.80
2019-04-20T08:19:16.303Z,23.42
2019-04-20T08:21:47.513Z,17.52
2019-04-20T08:24:17.573Z,18.25
2019-04-20T08:26:34.488Z,18.02
2019-04-20T08:29:19.068Z,19.05
2019-04-20T08:32:08.776Z,17.32
2019-04-20T08:34:46.113Z,17.48
2019-04-20T08:37:07.125Z,19.10
2019-04-20T08:42:16.342Z,18.40
2019-04-20T08:47:36.243Z,18.45
2019-04-20T08:50:11.624Z,18.17
2019-04-20T08:52:55.563Z,17.27
2019-04-20T08:55:04.665Z,17.48
2019-04-20T08:57:22.517Z,17.90
2019-04-20T08:59:52.687Z,18.07
2019-04-20T09:02:28.093Z,16.45
2019-04-20T09:05:09.068Z,16.55
2019-04-20T09:07:47.259Z,16.15
2019-04-20T09:12:55.812Z,16.90
2019-04-20T09:15:12.441Z,15.05
2019-04-20T09:17:53.011Z,15.03
2019-04-20T09:20:29.105Z,14.75
2019-04-20T09:23:07.121Z,14.53
2019-04-20T09:25:54.582Z,12.05
2019-04-20T09:28:11.728Z,11.40
2019-04-20T09:30:53.188Z,7.75
2019-04-20T09:33:51.347Z,8.13
2019-04-20T09:36:32.578Z,7.80
2019-04-20T09:39:06.222Z,7.20
2019-04-20T09:41:58.978Z,7.45
2019-04-20T09:44:06.848Z,6.90
2019-04-20T09:46:40.202Z,7.30
2019-04-20T09:49:15.722Z,6.83
2019-04-20T09:51:53.676Z,7.45
2019-04-20T09:54:25.646Z,6.87
2019-04-20T09:57:00.647Z,7.30
2019-04-20T09:59:31.584Z,7.35
2019-04-20T10:01:44.196Z,8.13
2019-04-20T10:04:08.339Z,7.58
2019-04-20T10:06:37.723Z,7.85
2019-04-20T10:09:09.562Z,7.67
2019-04-20T10:11:43.341Z,7.33
2019-04-20T10:14:10.412Z,7.65
2019-04-20T10:16:39.981Z,7.92
2019-04-20T10:19:11.750Z,8.73
2019-04-20T10:21:41.547Z,8.28
2019-04-20T10:24:10.670Z,7.55
2019-04-20T10:26:40.691Z,8.03
2019-04-20T10:29:09.916Z,7.53
2019-04-20T10:31:44.604Z,7.55
2019-04-20T10:34:09.466Z,8.03
2019-04-20T10:36:45.972Z,7.85
2019-04-20T10:39:16.232Z,7.95
2019-04-20T10:41:50.639Z,16.67
2019-04-20T10:44:15.053Z,7.15
2019-04-20T10:46:44.857Z,8.30
2019-04-20T10:49:13.691Z,7.85
2019-04-20T10:51:42.322Z,7.62
2019-04-20T10:54:12.106Z,7.62
2019-04-20T10:56:41.492Z,7.13
2019-04-20T10:59:11.743Z,8.48
2019-04-20T11:01:40.630Z,7.72
2019-04-20T11:04:10.475Z,7.82
2019-04-20T11:06:40.553Z,7.65
2019-04-20T11:09:09.280Z,7.87
2019-04-20T11:11:38.762Z,7.45
2019-04-20T11:14:14.450Z,8.03
2019-04-20T11:16:38.290Z,9.00
2019-04-20T11:19:07.424Z,8.88
2019-04-20T11:21:36.576Z,8.80
2019-04-20T11:24:05.434Z,7.65
2019-04-20T11:26:37.987Z,7.60
2019-04-20T11:29:06.300Z,8.58
2019-04-20T11:31:40.936Z,9.35
2019-04-20T11:34:06.047Z,8.95
2019-04-20T11:36:34.990Z,10.35
2019-04-20T11:39:11.157Z,9.60
2019-04-20T11:41:39.793Z,9.63
2019-04-20T11:44:09.579Z,9.93
2019-04-20T11:46:38.771Z,9.90
2019-04-20T11:49:07.884Z,9.58
2019-04-20T11:51:37.347Z,9.13
2019-04-20T11:54:10.299Z,9.25
2019-04-20T11:56:40.795Z,9.18
2019-04-20T11:59:12.978Z,8.90
2019-04-20T12:01:51.916Z,9.15
2019-04-20T12:04:33.699Z,8.60
2019-04-20T12:06:51.159Z,9.73
2019-04-20T12:09:21.559Z,9.03
2019-04-20T12:12:04.057Z,8.28
2019-04-20T12:14:22.905Z,9.10
2019-04-20T12:16:53.323Z,8.18
2019-04-20T12:19:22.926Z,8.98
2019-04-20T12:21:51.754Z,9.13
2019-04-20T12:24:22.636Z,8.13
2019-04-20T12:26:51.392Z,9.00
2019-04-20T12:29:21.753Z,10.35
2019-04-20T12:31:55.411Z,9.78
2019-04-20T12:34:24.550Z,10.80
2019-04-20T12:36:55.294Z,8.50
2019-04-20T12:39:24.922Z,8.25
2019-04-20T12:41:58.388Z,7.80
2019-04-20T12:44:25.729Z,8.30
2019-04-20T12:46:55.883Z,8.18
2019-04-20T12:49:27.559Z,7.80
2019-04-20T12:52:00.234Z,7.70
2019-04-20T12:54:26.973Z,7.65
2019-04-20T12:56:56.331Z,8.78
2019-04-20T12:59:27.541Z,9.13
2019-04-20T13:01:57.993Z,9.08
2019-04-20T13:04:26.852Z,9.63
2019-04-20T13:06:57.555Z,9.03
2019-04-20T13:09:30.894Z,8.48
2019-04-20T13:12:17.318Z,8.65
2019-04-20T13:14:57.968Z,9.00
2019-04-20T13:17:28.236Z,8.53
2019-04-20T13:19:57.536Z,9.33
2019-04-20T13:22:26.474Z,8.90
2019-04-20T13:24:57.046Z,9.20
2019-04-20T13:27:27.025Z,10.03
2019-04-20T13:29:56.063Z,9.13
2019-04-20T13:32:25.666Z,8.80
2019-04-20T13:34:58.208Z,9.28
2019-04-20T13:37:27.274Z,8.20
2019-04-20T13:39:58.580Z,9.13
2019-04-20T13:42:29.828Z,9.15
2019-04-20T13:44:59.070Z,9.45
2019-04-20T13:47:28.354Z,9.25
2019-04-20T13:49:58.637Z,8.60
2019-04-20T13:52:28.840Z,8.13
2019-04-20T13:54:58.127Z,9.50
2019-04-20T13:57:31.647Z,9.38
2019-04-20T14:00:02.289Z,8.90
2019-04-20T14:02:35.548Z,8.18
2019-04-20T14:05:06.786Z,8.03
2019-04-20T14:07:37.569Z,8.43
2019-04-20T14:10:06.872Z,8.15
2019-04-20T14:12:44.524Z,9.00
2019-04-20T14:15:09.098Z,7.87
2019-04-20T14:17:39.218Z,8.55
2019-04-20T14:20:13.208Z,8.10
2019-04-20T14:22:39.183Z,8.65
2019-04-20T14:25:09.048Z,8.25
2019-04-20T14:27:39.061Z,8.70
2019-04-20T14:30:09.024Z,9.08
2019-04-20T14:32:38.869Z,8.13
2019-04-20T14:35:09.062Z,8.00
2019-04-20T14:37:37.996Z,7.80
2019-04-20T14:40:10.281Z,7.28
2019-04-20T14:45:10.846Z,7.85
2019-04-20T14:47:41.570Z,7.70
2019-04-20T14:50:13.654Z,7.20
2019-04-20T14:52:42.279Z,6.67
2019-04-20T14:55:13.806Z,6.90
2019-04-20T14:57:41.621Z,6.77
2019-04-20T15:00:29.895Z,6.75
2019-04-20T15:03:00.281Z,6.97
2019-04-20T15:05:29.066Z,6.50
2019-04-20T15:07:58.944Z,6.45
2019-04-20T15:10:31.039Z,6.95
2019-04-20T15:13:02.479Z,6.97
2019-04-20T15:15:30.391Z,6.95
2019-04-20T15:18:06.778Z,7.50
2019-04-20T15:20:37.463Z,7.90
2019-04-20T15:23:07.894Z,7.90
2019-04-20T15:25:36.771Z,8.10
2019-04-20T15:28:08.178Z,7.72
2019-04-20T15:30:38.520Z,6.90
2019-04-20T15:33:09.219Z,6.78
2019-04-20T15:35:39.962Z,7.15
2019-04-20T15:38:09.103Z,7.17
2019-04-20T15:40:37.793Z,7.10
2019-04-20T15:43:13.526Z,7.25
2019-04-20T15:45:39.148Z,6.23
2019-04-20T15:48:09.945Z,6.70
2019-04-20T15:50:39.994Z,6.87
2019-04-20T15:53:09.021Z,7.08
2019-04-20T15:55:42.021Z,7.37
2019-04-20T15:58:10.223Z,7.35
2019-04-20T16:00:40.403Z,7.00
2019-04-20T16:03:15.052Z,6.97
2019-04-20T16:05:49.443Z,6.80
2019-04-20T16:08:23.748Z,7.53
2019-04-20T16:10:53.152Z,7.47
2019-04-20T16:13:31.355Z,7.60
2019-04-20T16:15:53.807Z,7.28
2019-04-20T16:18:25.046Z,7.20
2019-04-20T16:21:01.663Z,7.07
2019-04-20T16:23:24.983Z,6.72
2019-04-20T16:26:01.790Z,6.85
2019-04-20T16:28:31.926Z,6.80
2019-04-20T16:31:01.492Z,7.03
2019-04-20T16:33:30.528Z,6.72
2019-04-20T16:36:20.575Z,7.92
2019-04-20T16:38:49.387Z,6.95
2019-04-20T16:41:20.161Z,7.37
2019-04-20T16:43:49.990Z,6.92
2019-04-20T16:46:23.631Z,6.70
2019-04-20T16:48:52.668Z,6.72
2019-04-20T16:51:21.206Z,6.72
2019-04-20T16:53:50.140Z,6.62
2019-04-20T16:56:20.381Z,6.43
2019-04-20T16:58:54.734Z,6.60
2019-04-20T17:01:23.534Z,6.50
2019-04-20T17:04:02.153Z,5.93
2019-04-20T17:06:24.246Z,6.30
2019-04-20T17:08:54.642Z,6.33
2019-04-20T17:11:25.704Z,6.30
2019-04-20T17:13:56.957Z,5.90
2019-04-20T17:16:26.362Z,5.12
2019-04-20T17:18:57.360Z,5.70
2019-04-20T17:21:31.906Z,6.05
2019-04-20T17:23:59.472Z,6.12
2019-04-20T17:26:29.975Z,6.20
2019-04-20T17:29:01.748Z,5.95
2019-04-20T17:31:47.706Z,6.43
2019-04-20T17:34:39.075Z,5.45
2019-04-20T17:36:48.595Z,6.00
2019-04-20T17:39:30.236Z,6.33
2019-04-20T17:42:05.813Z,6.62
2019-04-20T17:44:34.264Z,6.03
2019-04-20T17:47:01.568Z,6.03
2019-04-20T17:49:35.478Z,6.43
2019-04-20T17:52:22.140Z,6.12
2019-04-20T17:54:35.622Z,5.87
2019-04-20T17:57:07.773Z,6.25
2019-04-20T17:59:38.514Z,6.05
2019-04-20T18:02:38.301Z,6.67
2019-04-20T18:05:17.606Z,6.10
2019-04-20T18:07:41.216Z,6.33
2019-04-20T18:10:11.557Z,6.65
2019-04-20T18:12:32.766Z,6.50
2019-04-20T18:15:15.298Z,5.70
2019-04-20T18:17:50.304Z,6.30
2019-04-20T18:20:05.228Z,6.47
2019-04-20T18:22:34.145Z,6.65
2019-04-20T18:25:25.116Z,6.15
2019-04-20T18:27:58.652Z,6.17
2019-04-20T18:30:26.245Z,6.45
2019-04-20T18:32:45.240Z,6.35
2019-04-20T18:35:16.255Z,6.80
2019-04-20T18:37:53.575Z,7.20
2019-04-20T18:40:29.161Z,7.47
2019-04-20T18:43:03.971Z,7.35
2019-04-20T18:45:35.984Z,7.57
2019-04-20T18:48:12.971Z,7.95
2019-04-20T18:50:30.765Z,7.60
2019-04-20T18:52:56.242Z,7.65
2019-04-20T18:55:34.524Z,7.83
2019-04-20T18:57:59.360Z,7.60
2019-04-20T19:00:33.384Z,7.53
2019-04-20T19:03:09.745Z,7.80
2019-04-20T19:05:29.588Z,7.83
2019-04-20T19:08:04.385Z,7.87
2019-04-20T19:10:33.388Z,7.20
2019-04-20T19:13:22.372Z,7.30
2019-04-20T19:16:13.372Z,6.78
2019-04-20T19:18:50.735Z,7.97
2019-04-20T19:21:11.163Z,7.85
2019-04-20T19:23:47.607Z,7.97
2019-04-20T19:26:16.306Z,8.50
2019-04-20T19:28:46.980Z,9.08
2019-04-20T19:31:29.008Z,9.70
2019-04-20T19:34:02.208Z,8.90
2019-04-20T19:36:24.484Z,9.25
2019-04-20T19:38:59.823Z,8.95
2019-04-20T19:41:30.169Z,8.90
2019-04-20T19:44:06.446Z,9.18
2019-04-20T19:49:00.789Z,9.88
2019-04-20T19:51:40.902Z,9.78
2019-04-20T19:54:22.706Z,9.58
2019-04-20T19:56:42.515Z,10.20
2019-04-20T19:59:11.000Z,9.93
2019-04-20T20:01:29.484Z,10.40
2019-04-20T20:04:09.251Z,10.40
2019-04-20T20:06:43.619Z,9.90
2019-04-20T20:09:10.867Z,11.03
2019-04-20T20:11:42.542Z,10.57
2019-04-20T20:14:11.122Z,10.10
2019-04-20T20:16:58.936Z,10.40
2019-04-20T20:19:21.357Z,10.48
2019-04-20T20:21:55.513Z,10.53
2019-04-20T20:24:12.232Z,10.50
2019-04-20T20:26:52.656Z,11.33
2019-04-20T20:29:23.183Z,11.00
2019-04-20T20:32:01.712Z,10.60
2019-04-20T20:34:21.734Z,11.48
2019-04-20T20:36:47.213Z,11.80
2019-04-20T20:39:21.394Z,12.75
2019-04-20T20:41:59.011Z,11.22
2019-04-20T20:44:28.632Z,11.60
2019-04-20T20:47:10.599Z,12.20
2019-04-20T20:49:37.956Z,11.83
2019-04-20T20:52:09.864Z,11.75
2019-04-20T20:54:36.090Z,13.95
2019-04-20T20:56:59.823Z,12.65
2019-04-20T20:59:34.791Z,12.03
2019-04-20T21:02:03.835Z,12.23
2019-04-20T21:04:25.772Z,12.15
2019-04-20T21:06:56.274Z,12.78
2019-04-20T21:09:27.111Z,12.60
2019-04-20T21:12:00.679Z,11.60
2019-04-20T21:14:31.511Z,12.58
2019-04-20T21:17:05.542Z,12.40
2019-04-20T21:19:50.212Z,11.53
2019-04-20T21:22:08.430Z,11.73
2019-04-20T21:24:33.747Z,11.88
2019-04-20T21:27:07.888Z,13.75
2019-04-20T21:29:37.793Z,11.80
2019-04-20T21:32:10.910Z,13.15
2019-04-20T21:34:35.582Z,12.78
2019-04-20T21:37:19.460Z,13.28
2019-04-20T21:39:54.141Z,13.60
2019-04-20T21:42:22.681Z,14.87
2019-04-20T21:44:57.628Z,14.68
2019-04-20T21:47:30.465Z,13.55
2019-04-20T21:50:05.843Z,13.35
2019-04-20T21:52:34.205Z,13.75
2019-04-20T21:54:56.187Z,13.55
2019-04-20T21:57:26.028Z,13.32
2019-04-20T22:00:06.325Z,13.62
2019-04-20T22:02:30.673Z,13.88
2019-04-20T22:04:57.597Z,13.03
2019-04-20T22:07:28.327Z,14.43
2019-04-20T22:09:58.411Z,14.63
2019-04-20T22:12:34.883Z,14.58
2019-04-20T22:15:05.029Z,14.35
2019-04-20T22:17:30.972Z,14.43
2019-04-20T22:20:07.482Z,14.65
2019-04-20T22:22:50.941Z,15.63
2019-04-20T22:25:21.609Z,15.45
2019-04-20T22:27:34.865Z,15.18
2019-04-20T22:30:02.151Z,15.78
2019-04-20T22:32:36.713Z,15.30
2019-04-20T22:35:08.312Z,16.70
2019-04-20T22:37:53.158Z,15.40
2019-04-20T22:40:26.380Z,16.40
2019-04-20T22:42:55.153Z,16.23
2019-04-20T22:45:23.403Z,15.78
2019-04-20T22:48:02.238Z,16.30
2019-04-20T22:50:38.725Z,16.65
2019-04-20T22:53:12.236Z,16.67
2019-04-20T22:55:51.387Z,15.75
2019-04-20T22:58:14.177Z,16.85
2019-04-20T23:00:43.617Z,18.23
2019-04-20T23:05:32.996Z,19.80
2019-04-20T23:08:02.479Z,17.45
2019-04-20T23:10:37.577Z,18.12
2019-04-20T23:13:03.259Z,17.15
2019-04-20T23:15:32.296Z,18.07
2019-04-20T23:18:04.278Z,17.67
2019-04-20T23:20:36.097Z,16.90
2019-04-20T23:23:05.005Z,17.55
2019-04-20T23:25:36.459Z,17.30
2019-04-20T23:28:10.187Z,19.17
2019-04-20T23:30:40.400Z,20.12
2019-04-20T23:33:09.747Z,19.12
2019-04-20T23:35:44.869Z,18.05
2019-04-20T23:38:16.507Z,17.92
2019-04-20T23:40:43.728Z,20.35
2019-04-20T23:43:33.690Z,18.82
2019-04-20T23:46:19.337Z,20.08
2019-04-20T23:49:01.733Z,18.45
2019-04-20T23:51:50.947Z,18.60
2019-04-20T23:54:10.229Z,20.08
2019-04-20T23:56:32.086Z,19.17
2019-04-20T23:59:02.292Z,19.45
